Terminal Aerodrome Forecast
Issued by NWS

Home | Current Version | Previous Version | Text Only | Print | Product List | Glossary On
Versions: 1 2 3 4 5 6 7 8 9 10 11 12
000
FTUS45 KLKN 060530
TAFEKO
TAF
KEKO 060530Z 0606/0706 16006KT P6SM VCSH SCT040 BKN070
     FM061200 07008KT P6SM VCSH SCT050 BKN080
     FM061800 13006KT P6SM -SHRA VCTS BKN070CB
     FM070200 18006KT P6SM VCSH BKN060=

USA.gov is the U.S. government's official web portal to all federal, state and local government web resources and services.